createdAt,value
2022-08-07T00:00:03.574Z,65.7
2022-08-07T00:10:19.121Z,65.9
2022-08-07T00:15:00.200Z,65.5
2022-08-07T00:20:03.370Z,65.7
2022-08-07T00:24:59.918Z,65.8
2022-08-07T00:30:00.088Z,65.8
2022-08-07T00:35:00.025Z,66.1
2022-08-07T00:40:00.160Z,66.7
2022-08-07T00:45:00.269Z,67.1
2022-08-07T00:50:19.278Z,67.6
2022-08-07T00:55:04.784Z,67.2
2022-08-07T01:00:00.309Z,67.1
2022-08-07T01:05:00.134Z,67.2
2022-08-07T01:10:06.016Z,67.8
2022-08-07T01:15:01.058Z,68.2
2022-08-07T01:20:00.135Z,68.7
2022-08-07T01:25:00.264Z,69.1
2022-08-07T01:30:00.884Z,68.4
2022-08-07T01:35:00.036Z,66.7
2022-08-07T01:40:00.345Z,66.5
2022-08-07T01:45:00.065Z,68.2
2022-08-07T01:50:00.427Z,69.4
2022-08-07T01:55:00.079Z,69.5
2022-08-07T02:00:01.541Z,70.1
2022-08-07T02:04:59.869Z,-1
2022-08-07T02:10:00.043Z,71.1
2022-08-07T02:15:00.882Z,70.5
2022-08-07T02:20:05.206Z,70.7
2022-08-07T02:25:00.020Z,71.2
2022-08-07T02:30:00.034Z,71.3
2022-08-07T02:35:00.695Z,71.3
2022-08-07T02:40:02.044Z,70.9
2022-08-07T02:45:00.134Z,71
2022-08-07T02:50:00.403Z,70.8
2022-08-07T02:54:59.852Z,71.4
2022-08-07T03:00:01.329Z,71.7
2022-08-07T03:05:00.025Z,71.9
2022-08-07T03:10:00.360Z,72.2
2022-08-07T03:15:02.444Z,72.4
2022-08-07T03:19:59.826Z,72.5
2022-08-07T03:25:00.252Z,72.8
2022-08-07T03:30:00.718Z,73.1
2022-08-07T03:35:00.994Z,73.1
2022-08-07T03:40:15.556Z,72.8
2022-08-07T03:44:59.773Z,72.7
2022-08-07T03:49:59.931Z,72.7
2022-08-07T03:55:07.018Z,72.7
2022-08-07T04:00:02.742Z,72.9
2022-08-07T04:04:59.989Z,72.8
2022-08-07T04:09:59.932Z,72.7
2022-08-07T04:15:00.267Z,72.3
2022-08-07T04:20:00.043Z,72.4
2022-08-07T04:25:01.390Z,72.8
2022-08-07T04:30:02.793Z,72.6
2022-08-07T04:34:59.877Z,72.7
2022-08-07T04:40:00.180Z,72.9
2022-08-07T04:45:02.578Z,72.9
2022-08-07T04:50:04.083Z,73.1
2022-08-07T04:54:59.798Z,72.6
2022-08-07T05:00:11.220Z,73.4
2022-08-07T05:05:00.000Z,73.5
2022-08-07T05:10:02.785Z,73.6
2022-08-07T05:15:04.504Z,73.5
2022-08-07T05:19:59.871Z,73.2
2022-08-07T05:25:00.379Z,72.8
2022-08-07T05:29:59.972Z,72
2022-08-07T05:34:59.978Z,72.1
2022-08-07T05:40:05.731Z,71.8
2022-08-07T05:45:14.854Z,71.4
2022-08-07T05:50:00.931Z,71.6
2022-08-07T05:55:06.820Z,71.4
2022-08-07T06:00:00.030Z,69.6
2022-08-07T06:05:03.357Z,65.4
2022-08-07T06:10:05.409Z,66.2
2022-08-07T06:15:05.822Z,65.2
2022-08-07T06:20:03.962Z,62.8
2022-08-07T06:25:01.411Z,62.4
2022-08-07T06:29:59.665Z,63.5
2022-08-07T06:34:59.811Z,62.3
2022-08-07T06:40:17.714Z,61.8
2022-08-07T06:44:59.964Z,61.3
2022-08-07T06:49:59.969Z,60.9
2022-08-07T06:55:33.325Z,59.8
2022-08-07T07:00:13.716Z,60.1
2022-08-07T07:05:00.005Z,58.7
2022-08-07T07:09:59.940Z,59.3
2022-08-07T07:15:03.253Z,59.4
2022-08-07T07:19:59.798Z,58.2
2022-08-07T07:25:14.081Z,58.6
2022-08-07T07:30:10.136Z,58.8
2022-08-07T07:34:59.796Z,58.2
2022-08-07T07:39:59.818Z,57.9
2022-08-07T07:44:59.851Z,57.2
2022-08-07T07:50:33.101Z,58.3
2022-08-07T07:54:59.879Z,58.9
2022-08-07T07:59:59.633Z,56.6
2022-08-07T08:04:59.762Z,57.2
2022-08-07T08:10:05.399Z,54.9
2022-08-07T08:14:59.855Z,56.7
2022-08-07T08:20:17.081Z,56.3
2022-08-07T08:25:18.191Z,54.8
2022-08-07T08:30:02.829Z,54.1
2022-08-07T08:34:59.604Z,53.6
2022-08-07T08:40:00.526Z,52.8
2022-08-07T08:44:59.858Z,50.1
2022-08-07T08:50:04.687Z,51.6
2022-08-07T08:54:59.533Z,50.8
2022-08-07T09:00:01.421Z,50.3
2022-08-07T09:04:59.898Z,49.8
2022-08-07T09:09:59.554Z,-1
2022-08-07T09:16:22.696Z,50
2022-08-07T09:20:34.668Z,49
2022-08-07T09:25:07.074Z,48.7
2022-08-07T09:30:08.336Z,48.2
2022-08-07T09:34:59.527Z,48.4
2022-08-07T09:39:59.668Z,46.2
2022-08-07T09:47:25.317Z,46.6
2022-08-07T09:50:18.227Z,-1
2022-08-07T09:55:03.460Z,47.6
2022-08-07T10:00:01.389Z,47.1
2022-08-07T10:04:59.773Z,47
2022-08-07T10:10:02.546Z,-1
2022-08-07T10:15:15.090Z,46.6
2022-08-07T10:19:59.509Z,45.3
2022-08-07T10:24:59.757Z,45
2022-08-07T10:29:59.616Z,-1
2022-08-07T10:35:09.148Z,45.1
2022-08-07T10:40:06.145Z,45.6
2022-08-07T10:44:59.640Z,45.6
2022-08-07T10:49:59.759Z,-1
2022-08-07T10:55:20.952Z,44.1
2022-08-07T10:59:59.499Z,44.1
2022-08-07T11:05:10.233Z,42.5
2022-08-07T11:10:08.996Z,-1
2022-08-07T11:15:00.891Z,44.2
2022-08-07T11:19:59.784Z,42.7
2022-08-07T11:24:59.606Z,43
2022-08-07T11:30:18.736Z,41
2022-08-07T11:34:59.627Z,41.3
2022-08-07T11:40:09.640Z,38.3
2022-08-07T11:45:09.530Z,38.2
2022-08-07T11:50:31.190Z,36.5
2022-08-07T11:54:59.547Z,34
2022-08-07T12:00:11.064Z,34.9
2022-08-07T12:05:08.901Z,33
2022-08-07T12:09:59.482Z,32
2022-08-07T12:15:01.244Z,31.1
2022-08-07T12:20:04.750Z,31.6
2022-08-07T12:25:02.105Z,31.9
2022-08-07T12:30:01.766Z,33.8
2022-08-07T12:34:59.641Z,31.6
2022-08-07T12:40:00.581Z,30.7
2022-08-07T12:44:59.582Z,26.1
2022-08-07T12:50:05.226Z,28.6
2022-08-07T12:55:03.710Z,31.2
2022-08-07T13:00:01.124Z,30.5
2022-08-07T13:05:02.505Z,31.5
2022-08-07T13:10:22.067Z,33.7
2022-08-07T13:14:59.702Z,33.7
2022-08-07T13:19:59.802Z,31.7
2022-08-07T13:25:02.370Z,30
2022-08-07T13:29:59.420Z,31
2022-08-07T13:35:08.429Z,30.8
2022-08-07T13:40:36.339Z,29.9
2022-08-07T13:46:07.200Z,30.5
2022-08-07T13:50:35.063Z,33.2
2022-08-07T13:54:59.525Z,33.3
2022-08-07T13:59:59.601Z,34.9
2022-08-07T14:04:59.505Z,36.8
2022-08-07T14:10:15.558Z,35.4
2022-08-07T14:14:59.367Z,35.8
2022-08-07T14:20:42.841Z,34.8
2022-08-07T14:24:59.469Z,35.9
2022-08-07T14:30:07.463Z,34.6
2022-08-07T14:34:59.519Z,35.9
2022-08-07T14:40:15.557Z,37.8
2022-08-07T14:45:00.111Z,40.1
2022-08-07T14:49:59.727Z,40.1
2022-08-07T14:55:00.728Z,-1
2022-08-07T15:00:05.499Z,40.8
2022-08-07T15:05:01.834Z,41.5
2022-08-07T15:10:01.993Z,42.2
2022-08-07T15:14:59.508Z,-1
2022-08-07T15:20:31.304Z,38.2
2022-08-07T15:25:14.123Z,38.5
2022-08-07T15:30:08.903Z,41
2022-08-07T15:34:59.306Z,39.7
2022-08-07T15:39:59.331Z,39.7
2022-08-07T15:44:59.271Z,39.2
2022-08-07T15:55:02.714Z,40.5
2022-08-07T16:00:04.359Z,39.7
2022-08-07T16:04:59.554Z,40.5
2022-08-07T16:09:59.435Z,41.5
2022-08-07T16:14:59.528Z,41
2022-08-07T16:20:00.102Z,39.8
2022-08-07T16:24:59.362Z,40.4
2022-08-07T16:30:11.388Z,40.9
2022-08-07T16:35:58.527Z,40.2
2022-08-07T16:39:59.544Z,40.4
2022-08-07T16:45:23.275Z,40.5
2022-08-07T16:50:20.353Z,41.4
2022-08-07T16:54:59.433Z,41.5
2022-08-07T16:59:59.521Z,41.5
2022-08-07T17:04:59.201Z,42.7
2022-08-07T17:10:06.079Z,43.7
2022-08-07T17:14:59.483Z,44.5
2022-08-07T17:20:02.087Z,45.2
2022-08-07T17:24:59.242Z,46.3
2022-08-07T17:30:15.641Z,46.3
2022-08-07T17:35:51.058Z,46.4
2022-08-07T17:40:07.954Z,46.8
2022-08-07T17:44:59.425Z,46.9
2022-08-07T17:49:59.554Z,47.5
2022-08-07T17:54:59.386Z,48.7
2022-08-07T17:59:59.196Z,48.9
2022-08-07T18:04:59.418Z,49.8
2022-08-07T18:10:07.602Z,49.3
2022-08-07T18:14:59.274Z,49.5
2022-08-07T18:21:09.618Z,49.7
2022-08-07T18:24:59.149Z,50.4
2022-08-07T18:30:07.390Z,50.7
2022-08-07T18:35:01.585Z,51.5
2022-08-07T18:40:38.704Z,51.5
2022-08-07T18:45:44.772Z,51.9
2022-08-07T18:50:32.823Z,52.1
2022-08-07T18:55:08.370Z,52.7
2022-08-07T19:00:04.183Z,52.5
2022-08-07T19:05:15.022Z,53.1
2022-08-07T19:10:00.396Z,53.3
2022-08-07T19:15:00.680Z,53.5
2022-08-07T19:20:02.905Z,53.7
2022-08-07T19:25:05.745Z,54
2022-08-07T19:31:05.414Z,55
2022-08-07T19:35:00.349Z,54.7
2022-08-07T19:40:01.551Z,54.8
2022-08-07T19:45:08.382Z,54.7
2022-08-07T19:50:02.728Z,54.9
2022-08-07T19:55:00.539Z,55.1
2022-08-07T20:00:00.320Z,56.3
2022-08-07T20:05:00.444Z,56.7
2022-08-07T20:10:37.168Z,56.9
2022-08-07T20:15:02.339Z,57
2022-08-07T20:20:00.663Z,57.7
2022-08-07T20:25:00.249Z,58.8
2022-08-07T20:30:00.535Z,58.9
2022-08-07T20:35:02.090Z,60.2
2022-08-07T20:40:02.248Z,60.7
2022-08-07T20:45:00.106Z,61.5
2022-08-07T20:50:02.249Z,61.9
2022-08-07T20:55:00.698Z,63.1
2022-08-07T21:00:07.836Z,-1
2022-08-07T21:05:00.246Z,62.8
2022-08-07T21:10:00.837Z,63
2022-08-07T21:15:00.860Z,63.7
2022-08-07T21:20:05.553Z,-1
2022-08-07T21:25:04.779Z,64.2
2022-08-07T21:30:00.270Z,64.8
2022-08-07T21:35:04.997Z,64.9
2022-08-07T21:40:00.351Z,64
2022-08-07T21:45:00.257Z,64.1
2022-08-07T21:50:02.745Z,64.5
2022-08-07T21:55:04.520Z,65
2022-08-07T22:00:04.486Z,64.4
2022-08-07T22:05:00.387Z,65.2
2022-08-07T22:10:00.046Z,64.8
2022-08-07T22:15:00.517Z,64.9
2022-08-07T22:20:06.035Z,64.8
2022-08-07T22:25:00.229Z,65.1
2022-08-07T22:30:00.275Z,66.4
2022-08-07T22:35:00.069Z,65.7
2022-08-07T22:40:00.360Z,65.1
2022-08-07T22:45:02.227Z,64.9
2022-08-07T22:50:33.670Z,65
2022-08-07T22:55:00.183Z,65.4
2022-08-07T23:00:00.259Z,66.6
2022-08-07T23:06:15.315Z,66.9
2022-08-07T23:10:03.536Z,66.5
2022-08-07T23:15:00.074Z,65.7
2022-08-07T23:20:02.916Z,66.7
2022-08-07T23:25:07.937Z,67
2022-08-07T23:30:38.523Z,67.4
2022-08-07T23:35:01.116Z,67.5
2022-08-07T23:40:00.385Z,66.8
2022-08-07T23:45:06.286Z,67.2
2022-08-07T23:50:00.025Z,67.2
2022-08-07T23:55:00.109Z,67.6
